Terminal Aerodrome Forecast
Issued by NWS New Orleans/Baton Rouge, LA

Current Version | Previous Version | Text Only | Print | Product List | Glossary On
Versions: 1 2 3 4 5 6 7 8 9 10 11
358
FTUS44 KLIX 061720
TAFBTR
TAF
KBTR 061720Z 0618/0718 08005KT P6SM SCT100 BKN200
     FM070400 00000KT P6SM FEW250=

USA.gov is the U.S. government's official web portal to all federal, state and local government web resources and services.